createdAt,value
2023-01-28T00:01:31.547Z,100655.59
2023-01-28T00:04:01.828Z,100660.63
2023-01-28T00:06:32.754Z,100660.31
2023-01-28T00:09:02.281Z,100667.16
2023-01-28T00:11:33.565Z,100672.03
2023-01-28T00:14:05.711Z,100679.94
2023-01-28T00:16:35.159Z,100682.19
2023-01-28T00:19:04.054Z,100676.44
2023-01-28T00:21:33.452Z,100681.19
2023-01-28T00:24:07.663Z,100679.91
2023-01-28T00:26:39.057Z,100684.31
2023-01-28T00:29:09.388Z,100687.16
2023-01-28T00:31:43.285Z,100674.53
2023-01-28T00:34:13.582Z,100675.56
2023-01-28T00:36:45.836Z,100668.53
2023-01-28T00:39:24.221Z,100668.25
2023-01-28T00:41:59.124Z,100670.09
2023-01-28T00:44:37.752Z,100674.16
2023-01-28T00:47:11.682Z,100670.81
2023-01-28T00:49:43.071Z,100663.63
2023-01-28T00:52:15.028Z,100662.47
2023-01-28T00:54:45.488Z,100667.72
2023-01-28T00:57:15.278Z,100665.59
2023-01-28T00:59:46.371Z,100670.81
2023-01-28T01:02:16.240Z,100671.19
2023-01-28T01:04:55.396Z,100667.25
2023-01-28T01:07:35.319Z,100671.75
2023-01-28T01:10:07.991Z,100667.56
2023-01-28T01:12:41.424Z,100671.78
2023-01-28T01:15:11.958Z,100680.13
2023-01-28T01:17:49.480Z,100670.75
2023-01-28T01:20:30.029Z,100674.16
2023-01-28T01:23:04.551Z,100670.59
2023-01-28T01:25:37.779Z,100666.56
2023-01-28T01:28:07.514Z,100659.00
2023-01-28T01:30:40.247Z,100669.09
2023-01-28T01:33:11.329Z,100651.78
2023-01-28T01:35:41.478Z,100649.63
2023-01-28T01:38:11.131Z,100648.06
2023-01-28T01:40:42.328Z,100647.09
2023-01-28T01:43:23.923Z,100638.56
2023-01-28T01:46:02.973Z,100635.94
2023-01-28T01:48:37.116Z,100634.16
2023-01-28T01:51:10.833Z,100637.03
2023-01-28T01:53:46.677Z,100634.31
2023-01-28T01:56:20.287Z,100626.63
2023-01-28T01:58:55.491Z,100621.56
2023-01-28T02:01:32.240Z,100619.78
2023-01-28T02:04:13.369Z,100619.41
2023-01-28T02:06:43.494Z,100622.16
2023-01-28T02:09:31.589Z,100614.50
2023-01-28T02:12:07.961Z,100607.16
2023-01-28T02:14:45.124Z,100614.63
2023-01-28T02:17:15.032Z,100617.59
2023-01-28T02:19:50.893Z,100601.38
2023-01-28T02:22:41.718Z,100592.75
2023-01-28T02:25:47.647Z,100597.88
2023-01-28T02:29:03.452Z,100604.53
2023-01-28T02:31:42.116Z,100600.78
2023-01-28T02:34:42.675Z,100597.06
2023-01-28T02:37:46.938Z,100594.31
2023-01-28T02:40:55.348Z,100601.16
2023-01-28T02:43:55.558Z,100597.06
2023-01-28T02:46:47.113Z,100594.19
2023-01-28T02:49:47.497Z,100600.69
2023-01-28T02:52:51.454Z,100601.66
2023-01-28T02:55:22.541Z,100597.81
2023-01-28T02:58:26.303Z,100603.66
2023-01-28T03:01:00.044Z,100611.47
2023-01-28T03:03:41.361Z,100606.66
2023-01-28T03:06:16.051Z,100598.75
2023-01-28T03:09:19.272Z,100587.69
2023-01-28T03:12:30.115Z,100580.22
2023-01-28T03:15:26.485Z,100570.63
2023-01-28T03:18:33.669Z,100555.25
2023-01-28T03:21:51.100Z,100551.53
2023-01-28T03:24:48.880Z,100551.69
2023-01-28T03:27:44.778Z,100544.69
2023-01-28T03:30:40.759Z,100543.75
2023-01-28T03:33:37.355Z,100542.31
2023-01-28T03:36:29.370Z,100570.50
2023-01-28T03:38:59.556Z,100631.94
2023-01-28T03:41:30.810Z,100631.59
2023-01-28T03:44:19.468Z,100638.00
2023-01-28T03:46:50.169Z,100632.41
2023-01-28T03:49:20.897Z,100623.09
2023-01-28T03:51:49.896Z,100612.03
2023-01-28T03:54:18.912Z,100627.47
2023-01-28T03:56:50.615Z,100609.78
2023-01-28T03:59:19.749Z,100614.44
2023-01-28T04:01:51.353Z,100604.13
2023-01-28T04:04:25.627Z,100597.53
2023-01-28T04:06:59.320Z,100602.25
2023-01-28T04:09:48.632Z,100594.38
2023-01-28T04:12:42.581Z,100594.94
2023-01-28T04:15:17.921Z,100592.75
2023-01-28T04:17:49.541Z,100588.31
2023-01-28T04:20:28.489Z,100600.72
2023-01-28T04:23:01.217Z,100599.13
2023-01-28T04:25:31.416Z,100599.94
2023-01-28T04:28:01.109Z,100604.13
2023-01-28T04:30:32.196Z,100606.78
2023-01-28T04:33:11.293Z,100602.44
2023-01-28T04:35:59.305Z,100590.78
2023-01-28T04:38:45.688Z,100591.53
2023-01-28T04:41:50.372Z,100589.16
2023-01-28T04:44:27.052Z,100586.88
2023-01-28T04:47:20.598Z,100587.47
2023-01-28T04:50:05.511Z,100596.22
2023-01-28T04:52:41.220Z,100590.94
2023-01-28T04:55:19.372Z,100584.66
2023-01-28T04:57:49.477Z,100583.81
2023-01-28T05:00:19.536Z,100581.78
2023-01-28T05:02:49.598Z,100583.81
2023-01-28T05:05:18.505Z,100592.00
2023-01-28T05:08:00.891Z,100594.03
2023-01-28T05:10:31.583Z,100598.31
2023-01-28T05:13:01.034Z,100594.72
2023-01-28T05:15:30.376Z,100594.72
2023-01-28T05:18:00.981Z,100585.97
2023-01-28T05:20:35.947Z,100587.41
2023-01-28T05:23:06.420Z,100585.84
2023-01-28T05:25:45.223Z,100579.63
2023-01-28T05:28:14.458Z,100589.91
2023-01-28T05:30:43.865Z,100587.97
2023-01-28T05:33:13.707Z,100582.69
2023-01-28T05:35:44.260Z,100588.88
2023-01-28T05:38:15.404Z,100574.88
2023-01-28T05:40:45.418Z,100577.97
2023-01-28T05:43:14.634Z,100582.50
2023-01-28T05:45:49.692Z,100593.94
2023-01-28T05:48:54.141Z,100586.31
2023-01-28T05:51:58.491Z,100579.84
2023-01-28T05:54:30.889Z,100585.19
2023-01-28T05:57:01.272Z,100587.09
2023-01-28T05:59:31.068Z,100588.66
2023-01-28T06:02:01.610Z,100590.59
2023-01-28T06:04:30.852Z,100581.22
2023-01-28T06:07:01.021Z,100591.16
2023-01-28T06:09:30.835Z,100590.53
2023-01-28T06:12:01.865Z,100583.22
2023-01-28T06:14:35.732Z,100583.13
2023-01-28T06:17:34.729Z,100574.69
2023-01-28T06:20:10.771Z,100580.34
2023-01-28T06:22:41.469Z,100576.63
2023-01-28T06:25:11.212Z,100581.91
2023-01-28T06:27:42.570Z,100576.16
2023-01-28T06:30:11.969Z,100571.16
2023-01-28T06:32:43.475Z,100585.31
2023-01-28T06:35:13.182Z,100589.13
2023-01-28T06:37:43.159Z,100583.75
2023-01-28T06:40:12.691Z,100590.09
2023-01-28T06:42:42.921Z,100590.28
2023-01-28T06:45:11.843Z,100593.78
2023-01-28T06:47:42.086Z,100593.22
2023-01-28T06:50:11.773Z,100594.78
2023-01-28T06:52:41.869Z,100598.16
2023-01-28T06:55:11.319Z,100600.44
2023-01-28T06:57:42.337Z,100609.44
2023-01-28T07:00:17.342Z,100619.13
2023-01-28T07:02:46.492Z,100601.78
2023-01-28T07:05:15.713Z,100611.28
2023-01-28T07:07:46.902Z,100600.13
2023-01-28T07:10:16.093Z,100598.59
2023-01-28T07:12:46.315Z,100591.91
2023-01-28T07:15:15.881Z,100597.34
2023-01-28T07:17:47.375Z,100596.66
2023-01-28T07:20:16.573Z,100604.13
2023-01-28T07:22:46.656Z,100608.28
2023-01-28T07:25:16.296Z,100617.06
2023-01-28T07:27:52.477Z,100612.03
2023-01-28T07:30:25.043Z,100602.53
2023-01-28T07:32:59.837Z,100602.34
2023-01-28T07:35:33.688Z,100607.63
2023-01-28T07:38:03.411Z,100612.31
2023-01-28T07:40:33.532Z,100611.44
2023-01-28T07:43:02.894Z,100609.75
2023-01-28T07:45:48.579Z,100607.03
2023-01-28T07:48:18.702Z,100604.63
2023-01-28T07:50:50.482Z,100601.88
2023-01-28T07:53:20.925Z,100604.84
2023-01-28T07:55:50.451Z,100601.38
2023-01-28T07:58:19.275Z,100597.31
2023-01-28T08:00:49.331Z,100599.09
2023-01-28T08:03:19.707Z,100596.09
2023-01-28T08:05:54.119Z,100604.41
2023-01-28T08:08:25.794Z,100609.06
2023-01-28T08:10:55.623Z,100607.38
2023-01-28T08:13:29.160Z,100612.53
2023-01-28T08:16:01.588Z,100600.75
2023-01-28T08:18:31.495Z,100614.72
2023-01-28T08:21:01.916Z,100604.84
2023-01-28T08:23:35.507Z,100614.09
2023-01-28T08:26:05.603Z,100616.03
2023-01-28T08:28:35.326Z,100618.47
2023-01-28T08:31:05.759Z,100612.81
2023-01-28T08:33:34.880Z,100615.81
2023-01-28T08:36:05.684Z,100612.31
2023-01-28T08:38:35.082Z,100625.88
2023-01-28T08:41:06.334Z,100629.09
2023-01-28T08:43:36.140Z,100634.53
2023-01-28T08:46:08.629Z,100632.63
2023-01-28T08:48:39.060Z,100634.84
2023-01-28T08:51:08.647Z,100640.38
2023-01-28T08:53:37.755Z,100636.13
2023-01-28T08:56:06.923Z,100628.53
2023-01-28T08:58:35.480Z,100627.19
2023-01-28T09:01:07.509Z,100633.59
2023-01-28T09:03:37.199Z,100636.44
2023-01-28T09:06:07.631Z,100637.28
2023-01-28T09:08:37.699Z,100640.75
2023-01-28T09:11:06.971Z,100640.03
2023-01-28T09:13:36.173Z,100651.22
2023-01-28T09:16:08.371Z,100647.38
2023-01-28T09:18:37.654Z,100655.94
2023-01-28T09:21:08.267Z,100665.53
2023-01-28T09:23:39.864Z,100669.66
2023-01-28T09:26:10.763Z,100679.97
2023-01-28T09:28:40.872Z,100693.03
2023-01-28T09:31:13.410Z,100692.78
2023-01-28T09:33:44.386Z,100692.31
2023-01-28T09:36:13.871Z,100690.75
2023-01-28T09:38:42.893Z,100695.06
2023-01-28T09:41:47.005Z,100705.78
2023-01-28T09:44:38.116Z,100708.97
2023-01-28T09:47:17.898Z,100701.34
2023-01-28T09:49:54.473Z,100697.94
2023-01-28T09:52:26.686Z,100696.22
2023-01-28T09:55:02.980Z,100695.41
2023-01-28T09:57:47.244Z,100693.84
2023-01-28T10:00:19.754Z,100699.38
2023-01-28T10:03:04.438Z,100701.78
2023-01-28T10:05:40.810Z,100698.88
2023-01-28T10:08:22.213Z,100694.78
2023-01-28T10:11:22.554Z,100693.25
2023-01-28T10:14:23.184Z,100691.91
2023-01-28T10:17:01.165Z,100681.97
2023-01-28T10:19:36.548Z,100684.25
2023-01-28T10:22:13.360Z,100678.72
2023-01-28T10:24:50.882Z,100683.75
2023-01-28T10:27:26.557Z,100688.66
2023-01-28T10:30:00.378Z,100702.13
2023-01-28T10:32:40.561Z,100699.59
2023-01-28T10:35:11.567Z,100710.66
2023-01-28T10:37:41.964Z,100717.56
2023-01-28T10:40:17.570Z,100721.19
2023-01-28T10:42:47.278Z,100741.84
2023-01-28T10:45:31.313Z,100739.50
2023-01-28T10:48:25.108Z,100735.59
2023-01-28T10:51:05.836Z,100744.38
2023-01-28T10:53:44.503Z,100748.22
2023-01-28T10:56:30.757Z,100756.03
2023-01-28T10:59:06.504Z,100760.72
2023-01-28T11:01:56.390Z,100761.13
2023-01-28T11:04:37.492Z,100751.78
2023-01-28T11:07:21.516Z,100760.72
2023-01-28T11:09:51.886Z,100759.41
2023-01-28T11:12:27.286Z,100758.28
2023-01-28T11:15:03.823Z,100762.69
2023-01-28T11:17:42.989Z,100754.91
2023-01-28T11:20:23.592Z,100758.88
2023-01-28T11:22:54.638Z,100752.72
2023-01-28T11:25:39.137Z,100767.94
2023-01-28T11:28:21.900Z,100771.78
2023-01-28T11:30:59.686Z,100770.59
2023-01-28T11:33:39.540Z,100787.94
2023-01-28T11:36:17.766Z,100791.41
2023-01-28T11:39:15.140Z,100796.84
2023-01-28T11:41:43.781Z,100805.06
2023-01-28T11:44:33.595Z,100809.38
2023-01-28T11:47:40.583Z,100804.94
2023-01-28T11:50:36.048Z,100810.63
2023-01-28T11:53:17.720Z,100819.13
2023-01-28T11:56:00.402Z,100825.13
2023-01-28T11:58:53.583Z,100827.97
2023-01-28T12:01:28.928Z,100843.28
2023-01-28T12:04:16.992Z,100835.84
2023-01-28T12:07:07.065Z,100844.72
2023-01-28T12:09:45.619Z,100841.19
2023-01-28T12:12:32.500Z,100853.16
2023-01-28T12:15:20.607Z,100847.25
2023-01-28T12:18:24.501Z,100856.13
2023-01-28T12:21:11.264Z,100864.50
2023-01-28T12:24:15.116Z,100874.56
2023-01-28T12:27:21.210Z,100874.47
2023-01-28T12:30:38.193Z,100868.19
2023-01-28T12:33:44.496Z,100871.19
2023-01-28T12:36:36.161Z,100858.88
2023-01-28T12:39:13.024Z,100865.16
2023-01-28T12:42:16.400Z,100865.50
2023-01-28T12:44:53.370Z,100874.94
2023-01-28T12:47:39.212Z,100875.16
2023-01-28T12:50:43.329Z,100874.16
2023-01-28T12:53:30.979Z,100885.94
2023-01-28T12:56:24.685Z,100896.00
2023-01-28T12:59:03.371Z,100897.00
2023-01-28T13:02:06.130Z,100902.84
2023-01-28T13:05:01.602Z,100901.16
2023-01-28T13:07:36.057Z,100913.53
2023-01-28T13:10:14.766Z,100911.75
2023-01-28T13:12:44.550Z,100919.53
2023-01-28T13:15:17.932Z,100909.41
2023-01-28T13:18:03.134Z,100910.31
2023-01-28T13:20:48.635Z,100928.75
2023-01-28T13:23:28.446Z,100935.81
2023-01-28T13:26:02.065Z,100942.88
2023-01-28T13:28:36.059Z,100950.09
2023-01-28T13:31:09.660Z,100952.91
2023-01-28T13:33:42.813Z,100957.66
2023-01-28T13:36:28.060Z,100961.38
2023-01-28T13:39:08.356Z,100973.28
2023-01-28T13:41:53.801Z,100965.28
2023-01-28T13:44:35.317Z,100975.59
2023-01-28T13:47:10.830Z,100986.06
2023-01-28T13:49:51.177Z,100986.44
2023-01-28T13:52:26.145Z,101000.16
2023-01-28T13:55:41.659Z,100996.66
2023-01-28T13:58:17.870Z,100998.91
2023-01-28T14:01:15.823Z,101008.28
2023-01-28T14:04:03.896Z,101016.50
2023-01-28T14:06:54.695Z,101022.69
2023-01-28T14:10:02.222Z,101030.34
2023-01-28T14:13:01.979Z,101031.63
2023-01-28T14:15:47.383Z,101036.47
2023-01-28T14:18:24.079Z,101036.44
2023-01-28T14:20:59.796Z,101048.50
2023-01-28T14:23:34.067Z,101044.31
2023-01-28T14:26:34.209Z,101049.34
2023-01-28T14:29:08.111Z,101047.34
2023-01-28T14:31:42.054Z,101059.78
2023-01-28T14:34:28.671Z,101057.94
2023-01-28T14:37:08.427Z,101054.66
2023-01-28T14:39:47.656Z,101066.41
2023-01-28T14:42:35.874Z,101062.75
2023-01-28T14:45:32.331Z,101060.28
2023-01-28T14:48:30.701Z,101060.59
2023-01-28T14:51:16.065Z,101067.84
2023-01-28T14:54:11.748Z,101069.34
2023-01-28T14:57:06.129Z,101056.06
2023-01-28T14:59:50.657Z,101057.34
2023-01-28T15:02:23.657Z,101054.97
2023-01-28T15:04:56.249Z,101054.31
2023-01-28T15:07:30.486Z,101057.53
2023-01-28T15:10:08.386Z,101060.72
2023-01-28T15:12:51.287Z,101060.41
2023-01-28T15:15:29.105Z,101063.78
2023-01-28T15:18:07.442Z,101056.38
2023-01-28T15:20:36.506Z,101059.16
2023-01-28T15:23:08.701Z,101066.53
2023-01-28T15:25:43.839Z,101065.75
2023-01-28T15:28:27.710Z,101073.81
2023-01-28T15:30:58.724Z,101064.53
2023-01-28T15:33:29.141Z,101053.88
2023-01-28T15:36:00.346Z,101050.59
2023-01-28T15:38:31.579Z,101048.31
2023-01-28T15:41:03.912Z,101052.41
2023-01-28T15:43:38.408Z,101049.13
2023-01-28T15:46:17.724Z,101058.38
2023-01-28T15:49:04.925Z,101050.19
2023-01-28T15:51:37.960Z,101046.38
2023-01-28T15:54:11.147Z,101037.38
2023-01-28T15:56:43.756Z,101025.28
2023-01-28T15:59:17.959Z,101028.63
2023-01-28T16:01:49.344Z,101028.94
2023-01-28T16:04:32.018Z,101029.19
2023-01-28T16:07:06.840Z,101027.59
2023-01-28T16:09:37.385Z,101021.69
2023-01-28T16:12:09.898Z,101017.94
2023-01-28T16:14:52.205Z,101000.94
2023-01-28T16:17:30.425Z,100990.56
2023-01-28T16:20:07.218Z,100992.69
2023-01-28T16:22:39.808Z,100991.69
2023-01-28T16:25:30.820Z,100996.69
2023-01-28T16:28:02.659Z,101003.19
2023-01-28T16:30:31.393Z,101003.44
2023-01-28T16:33:02.179Z,101004.22
2023-01-28T16:35:56.511Z,101005.41
2023-01-28T16:38:22.555Z,101005.53
2023-01-28T16:40:52.108Z,101002.00
2023-01-28T16:43:22.295Z,101000.28
2023-01-28T16:45:52.699Z,101001.06
2023-01-28T16:48:28.236Z,101000.63
2023-01-28T16:50:58.359Z,101002.13
2023-01-28T16:53:33.833Z,100992.50
2023-01-28T16:56:03.720Z,100974.09
2023-01-28T16:58:34.470Z,100972.47
2023-01-28T17:01:04.212Z,100965.28
2023-01-28T17:03:36.019Z,100958.13
2023-01-28T17:06:06.580Z,100956.31
2023-01-28T17:08:35.964Z,100952.56
2023-01-28T17:11:05.581Z,100954.75
2023-01-28T17:13:35.277Z,100940.03
2023-01-28T17:16:05.957Z,100930.38
2023-01-28T17:18:34.925Z,100929.09
2023-01-28T17:21:08.395Z,100916.84
2023-01-28T17:23:38.318Z,100921.25
2023-01-28T17:26:12.650Z,100907.19
2023-01-28T17:28:43.901Z,100908.44
2023-01-28T17:31:16.462Z,100901.09
2023-01-28T17:33:47.051Z,100895.75
2023-01-28T17:36:16.094Z,100889.28
2023-01-28T17:38:46.381Z,100888.63
2023-01-28T17:41:18.865Z,100876.78
2023-01-28T17:43:53.984Z,100886.31
2023-01-28T17:46:25.889Z,100890.47
2023-01-28T17:48:55.805Z,100886.78
2023-01-28T17:51:24.047Z,100898.38
2023-01-28T17:53:55.049Z,100895.09
2023-01-28T17:56:28.719Z,100892.66
2023-01-28T17:59:02.796Z,100879.56
2023-01-28T18:01:32.133Z,100878.53
2023-01-28T18:04:02.209Z,100877.25
2023-01-28T18:06:32.629Z,100882.66
2023-01-28T18:09:02.935Z,100887.78
2023-01-28T18:11:34.289Z,100887.09
2023-01-28T18:14:03.168Z,100885.19
2023-01-28T18:16:33.572Z,100886.19
2023-01-28T18:19:02.623Z,100882.13
2023-01-28T18:21:52.571Z,100882.41
2023-01-28T18:24:32.151Z,100880.94
2023-01-28T18:27:03.786Z,100872.25
2023-01-28T18:29:33.741Z,100866.00
2023-01-28T18:32:02.554Z,100873.50
2023-01-28T18:34:32.197Z,100875.97
2023-01-28T18:37:04.318Z,100873.56
2023-01-28T18:39:35.226Z,100887.78
2023-01-28T18:42:03.760Z,100882.69
2023-01-28T18:44:32.785Z,100879.75
2023-01-28T18:47:09.537Z,100880.97
2023-01-28T18:49:43.245Z,100875.69
2023-01-28T18:52:11.894Z,100886.13
2023-01-28T18:54:41.046Z,100877.63
2023-01-28T18:57:10.421Z,100889.72
2023-01-28T18:59:39.169Z,100896.06
2023-01-28T19:02:08.149Z,100900.47
2023-01-28T19:04:38.293Z,100891.97
2023-01-28T19:07:11.677Z,100897.09
2023-01-28T19:09:41.261Z,100898.88
2023-01-28T19:12:09.941Z,100904.31
2023-01-28T19:14:39.245Z,100908.88
2023-01-28T19:17:08.097Z,100907.59
2023-01-28T19:19:37.670Z,100907.22
2023-01-28T19:22:06.736Z,100902.28
2023-01-28T19:24:36.808Z,100903.34
2023-01-28T19:27:06.036Z,100908.22
2023-01-28T19:29:36.010Z,100908.78
2023-01-28T19:32:06.668Z,100903.16
2023-01-28T19:34:35.986Z,100910.34
2023-01-28T19:37:05.999Z,100907.81
2023-01-28T19:39:35.217Z,100913.19
2023-01-28T19:42:03.908Z,100920.22
2023-01-28T19:44:34.987Z,100913.34
2023-01-28T19:47:06.880Z,100928.63
2023-01-28T19:49:35.825Z,100931.03
2023-01-28T19:52:05.676Z,100927.28
2023-01-28T19:54:34.389Z,100925.63
2023-01-28T19:57:04.281Z,100934.38
2023-01-28T19:59:34.121Z,100929.94
2023-01-28T20:02:03.613Z,100940.88
2023-01-28T20:04:32.107Z,100939.22
2023-01-28T20:07:02.502Z,100939.28
2023-01-28T20:09:31.216Z,100932.81
2023-01-28T20:12:07.087Z,100933.69
2023-01-28T20:14:36.167Z,100936.16
2023-01-28T20:17:06.226Z,100934.09
2023-01-28T20:19:35.583Z,100943.88
2023-01-28T20:22:03.986Z,100942.31
2023-01-28T20:24:34.029Z,100936.81
2023-01-28T20:27:03.789Z,100940.41
2023-01-28T20:29:33.560Z,100939.75
2023-01-28T20:32:15.761Z,100938.09
2023-01-28T20:34:47.526Z,100947.28
2023-01-28T20:37:16.138Z,100944.31
2023-01-28T20:39:46.055Z,100943.47
2023-01-28T20:42:15.925Z,100943.09
2023-01-28T20:44:47.869Z,100940.38
2023-01-28T20:47:20.033Z,100942.88
2023-01-28T20:49:49.809Z,100941.03
2023-01-28T20:52:19.501Z,100934.38
2023-01-28T20:54:50.408Z,100942.56
2023-01-28T20:57:19.814Z,100938.13
2023-01-28T20:59:49.841Z,100943.28
2023-01-28T21:02:21.101Z,100947.13
2023-01-28T21:04:52.911Z,100955.91
2023-01-28T21:07:24.768Z,100952.13
2023-01-28T21:10:03.675Z,100966.66
2023-01-28T21:12:33.771Z,100961.94
2023-01-28T21:15:06.180Z,100961.53
2023-01-28T21:17:42.159Z,100959.75
2023-01-28T21:20:12.145Z,100966.34
2023-01-28T21:22:41.114Z,100968.22
2023-01-28T21:25:12.755Z,100960.97
2023-01-28T21:27:47.756Z,100966.16
2023-01-28T21:30:20.344Z,100969.00
2023-01-28T21:32:51.601Z,100965.97
2023-01-28T21:35:23.129Z,100968.38
2023-01-28T21:37:54.169Z,100974.81
2023-01-28T21:40:28.126Z,100969.22
2023-01-28T21:42:59.958Z,100967.09
2023-01-28T21:45:32.389Z,100967.97
2023-01-28T21:48:10.289Z,100979.03
2023-01-28T21:51:02.593Z,100980.22
2023-01-28T21:53:32.392Z,100980.69
2023-01-28T21:56:07.132Z,100982.59
2023-01-28T21:59:04.288Z,100985.13
2023-01-28T22:01:35.629Z,100992.13
2023-01-28T22:04:04.915Z,101000.69
2023-01-28T22:06:34.551Z,100994.00
2023-01-28T22:09:05.394Z,100997.44
2023-01-28T22:11:35.104Z,101001.34
2023-01-28T22:14:05.544Z,100996.63
2023-01-28T22:16:39.182Z,100999.09
2023-01-28T22:19:09.404Z,101007.03
2023-01-28T22:21:47.388Z,101012.53
2023-01-28T22:24:28.182Z,101008.38
2023-01-28T22:27:04.144Z,101014.22
2023-01-28T22:29:34.296Z,101006.97
2023-01-28T22:32:06.282Z,100999.63
2023-01-28T22:34:46.686Z,101012.53
2023-01-28T22:37:15.904Z,101002.72
2023-01-28T22:39:51.187Z,101011.94
2023-01-28T22:42:22.597Z,101008.97
2023-01-28T22:44:53.305Z,101015.63
2023-01-28T22:47:24.346Z,101011.72
2023-01-28T22:50:08.595Z,101021.22
2023-01-28T22:52:41.383Z,101020.38
2023-01-28T22:55:16.228Z,101019.66
2023-01-28T22:57:47.453Z,101016.78
2023-01-28T23:00:22.863Z,101027.56
2023-01-28T23:02:53.899Z,101026.72
2023-01-28T23:05:24.051Z,101029.03
2023-01-28T23:07:55.934Z,101025.75
2023-01-28T23:10:34.036Z,101027.31
2023-01-28T23:13:19.747Z,101031.81
2023-01-28T23:16:12.969Z,101021.63
2023-01-28T23:18:43.316Z,101026.69
2023-01-28T23:21:43.677Z,101029.81
2023-01-28T23:24:23.240Z,101027.25
2023-01-28T23:27:03.958Z,101033.38
2023-01-28T23:29:34.618Z,101026.91
2023-01-28T23:32:11.815Z,101025.13
2023-01-28T23:34:46.979Z,101016.47
2023-01-28T23:37:16.430Z,101021.31
2023-01-28T23:39:50.293Z,101029.44
2023-01-28T23:42:23.617Z,101021.59
2023-01-28T23:44:52.556Z,101018.91
2023-01-28T23:47:22.299Z,101018.44
2023-01-28T23:49:53.863Z,101021.94
2023-01-28T23:52:24.038Z,101021.44
2023-01-28T23:54:54.541Z,101027.81
2023-01-28T23:57:24.603Z,101026.97
2023-01-28T23:59:54.667Z,101032.16
